createdAt,value
2022-08-30T00:02:52.501Z,101726.75
2022-08-30T00:07:58.298Z,101689.75
2022-08-30T00:13:01.905Z,101723.34
2022-08-30T00:18:04.659Z,101723.75
2022-08-30T00:23:08.838Z,101720.38
2022-08-30T00:28:11.972Z,101716.28
2022-08-30T00:33:16.082Z,101671.41
2022-08-30T00:38:20.180Z,101696.59
2022-08-30T00:43:29.520Z,101696.56
2022-08-30T00:48:32.358Z,101667.78
2022-08-30T00:53:39.914Z,101679.47
2022-08-30T00:58:46.815Z,101702.53
2022-08-30T01:03:50.761Z,101720.91
2022-08-30T01:08:55.775Z,101634.44
2022-08-30T01:14:00.249Z,101711.34
2022-08-30T01:19:03.690Z,101719.41
2022-08-30T01:24:10.459Z,101725.59
2022-08-30T01:29:19.186Z,101713.13
2022-08-30T01:34:21.922Z,101721.19
2022-08-30T01:39:26.751Z,101709.41
2022-08-30T01:44:29.433Z,101728.47
2022-08-30T01:49:32.238Z,101726.69
2022-08-30T01:54:38.618Z,101731.94
2022-08-30T01:59:43.464Z,101734.88
2022-08-30T02:04:46.208Z,101725.84
2022-08-30T02:09:51.362Z,101736.31
2022-08-30T02:14:54.586Z,101725.66
2022-08-30T02:19:57.413Z,101722.31
2022-08-30T02:25:01.914Z,101700.84
2022-08-30T02:30:06.606Z,101692.09
2022-08-30T02:35:10.431Z,101719.44
2022-08-30T02:40:14.963Z,101712.97
2022-08-30T02:45:17.672Z,101644.56
2022-08-30T02:50:22.060Z,101707.66
2022-08-30T02:55:28.612Z,101692.03
2022-08-30T03:00:31.273Z,101672.22
2022-08-30T03:05:34.342Z,101703.81
2022-08-30T03:10:38.885Z,101694.38
2022-08-30T03:15:42.259Z,101663.13
2022-08-30T03:20:46.170Z,101653.25
2022-08-30T03:25:58.459Z,101703.31
2022-08-30T03:31:01.494Z,101637.47
2022-08-30T03:36:05.464Z,101676.19
2022-08-30T03:41:09.733Z,101701.13
2022-08-30T03:46:12.767Z,101697.56
2022-08-30T03:51:15.456Z,101608.41
2022-08-30T03:56:19.945Z,101709.03
2022-08-30T04:01:23.163Z,101711.59
2022-08-30T04:06:27.303Z,101702.94
2022-08-30T04:11:32.058Z,101702.00
2022-08-30T04:16:35.017Z,101677.19
2022-08-30T04:21:42.875Z,101676.63
2022-08-30T04:26:47.524Z,101699.13
2022-08-30T04:31:50.675Z,101713.03
2022-08-30T04:36:53.688Z,101682.13
2022-08-30T04:41:58.268Z,101728.47
2022-08-30T04:47:00.968Z,101690.72
2022-08-30T04:52:06.227Z,101729.31
2022-08-30T04:57:10.286Z,101714.53
2022-08-30T05:02:14.820Z,101725.28
2022-08-30T05:07:18.037Z,101738.66
2022-08-30T05:12:24.196Z,101705.91
2022-08-30T05:17:27.614Z,101743.16
2022-08-30T05:22:30.876Z,101752.88
2022-08-30T05:27:37.841Z,101743.78
2022-08-30T05:32:41.891Z,101765.41
2022-08-30T05:37:44.804Z,101763.81
2022-08-30T05:42:48.817Z,101761.41
2022-08-30T05:47:51.459Z,101755.13
2022-08-30T05:52:54.869Z,101763.72
2022-08-30T05:58:00.602Z,101694.31
2022-08-30T06:03:03.977Z,101766.94
2022-08-30T06:08:06.705Z,101765.38
2022-08-30T06:13:11.161Z,101773.00
2022-08-30T06:18:14.524Z,101767.09
2022-08-30T06:23:17.638Z,101760.38
2022-08-30T06:28:21.735Z,101760.94
2022-08-30T06:33:26.773Z,101767.59
2022-08-30T06:38:29.361Z,101763.97
2022-08-30T06:43:33.327Z,101761.28
2022-08-30T06:48:36.136Z,101706.09
2022-08-30T06:53:39.107Z,101763.59
2022-08-30T06:58:45.650Z,101639.31
2022-08-30T07:03:48.563Z,101776.72
2022-08-30T07:08:56.386Z,101773.47
2022-08-30T07:14:01.560Z,101732.56
2022-08-30T07:19:05.198Z,101770.03
2022-08-30T07:24:10.077Z,101768.09
2022-08-30T07:29:14.282Z,101770.53
2022-08-30T07:34:19.269Z,101757.22
2022-08-30T07:39:23.308Z,101771.84
2022-08-30T07:44:28.457Z,101780.50
2022-08-30T07:49:31.577Z,101780.13
2022-08-30T07:54:34.439Z,101792.00
2022-08-30T07:59:38.495Z,101790.88
2022-08-30T08:04:41.194Z,101796.72
2022-08-30T08:09:44.016Z,101739.94
2022-08-30T08:14:48.055Z,101769.41
2022-08-30T08:19:50.729Z,101793.78
2022-08-30T08:25:03.089Z,101775.22
2022-08-30T08:30:09.536Z,101749.03
2022-08-30T08:35:12.581Z,101774.38
2022-08-30T08:40:18.283Z,101796.16
2022-08-30T08:45:30.230Z,101794.63
2022-08-30T08:50:33.858Z,101799.56
2022-08-30T08:55:44.951Z,101767.13
2022-08-30T09:00:49.071Z,101801.50
2022-08-30T09:05:55.720Z,101765.09
2022-08-30T09:11:02.444Z,101795.97
2022-08-30T09:16:07.135Z,101803.31
2022-08-30T09:21:25.167Z,101762.78
2022-08-30T09:26:32.689Z,101786.31
2022-08-30T09:31:48.753Z,101755.31
2022-08-30T09:36:53.826Z,101804.09
2022-08-30T09:42:13.626Z,101798.09
2022-08-30T09:47:24.657Z,101751.03
2022-08-30T09:52:39.796Z,101798.97
2022-08-30T09:57:55.782Z,101784.66
2022-08-30T10:03:11.262Z,101724.91
2022-08-30T10:08:25.270Z,101785.88
2022-08-30T10:13:47.740Z,101782.28
2022-08-30T10:19:06.200Z,101772.72
2022-08-30T10:24:13.089Z,101767.66
2022-08-30T10:29:29.480Z,101750.88
2022-08-30T10:34:39.831Z,101765.50
2022-08-30T10:39:46.643Z,101759.06
2022-08-30T10:44:55.903Z,101768.06
2022-08-30T10:50:08.898Z,101770.28
2022-08-30T10:55:16.684Z,101750.50
2022-08-30T11:00:27.511Z,101762.25
2022-08-30T11:05:47.565Z,101741.53
2022-08-30T11:11:02.599Z,101768.63
2022-08-30T11:16:08.290Z,101759.38
2022-08-30T11:21:25.739Z,101742.84
2022-08-30T11:26:57.080Z,101759.66
2022-08-30T11:32:02.039Z,101758.69
2022-08-30T11:37:09.851Z,101747.41
2022-08-30T11:42:29.384Z,101755.41
2022-08-30T11:47:44.696Z,101744.63
2022-08-30T11:53:00.735Z,101739.88
2022-08-30T11:58:19.204Z,101689.81
2022-08-30T12:03:35.044Z,101704.53
2022-08-30T12:08:57.951Z,101711.47
2022-08-30T12:14:09.232Z,101722.28
2022-08-30T12:19:17.399Z,101699.94
2022-08-30T12:24:26.967Z,101719.63
2022-08-30T12:29:34.226Z,101715.88
2022-08-30T12:34:52.725Z,101708.03
2022-08-30T12:40:06.502Z,101706.84
2022-08-30T12:45:13.337Z,101648.47
2022-08-30T12:50:20.267Z,101703.56
2022-08-30T12:55:27.493Z,101708.78
2022-08-30T13:00:32.857Z,101699.03
2022-08-30T13:05:48.053Z,101670.28
2022-08-30T13:11:01.524Z,101629.97
2022-08-30T13:16:12.277Z,101689.59
2022-08-30T13:21:25.403Z,101697.47
2022-08-30T13:26:32.904Z,101690.16
2022-08-30T13:31:36.873Z,101691.00
2022-08-30T13:36:46.916Z,101688.69
2022-08-30T13:41:52.211Z,101673.31
2022-08-30T13:47:32.149Z,101678.50
2022-08-30T13:52:24.388Z,101685.38
2022-08-30T14:02:55.895Z,101676.94
2022-08-30T14:08:00.459Z,101665.38
2022-08-30T14:13:08.982Z,101663.69
2022-08-30T14:18:17.183Z,101655.22
2022-08-30T14:23:20.581Z,101652.81
2022-08-30T14:28:25.909Z,101639.91
2022-08-30T14:33:29.873Z,101635.97
2022-08-30T14:38:32.540Z,101649.44
2022-08-30T14:43:37.690Z,101655.19
2022-08-30T14:48:41.582Z,101645.41
2022-08-30T14:53:46.972Z,101628.88
2022-08-30T14:58:53.009Z,101601.00
2022-08-30T15:03:59.139Z,101638.63
2022-08-30T15:09:03.182Z,101625.69
2022-08-30T15:14:10.110Z,101632.03
2022-08-30T15:19:18.638Z,101578.44
2022-08-30T15:24:27.483Z,101614.44
2022-08-30T15:29:34.266Z,101607.50
2022-08-30T15:34:38.047Z,101611.09
2022-08-30T15:39:40.874Z,101543.25
2022-08-30T15:44:44.985Z,101608.81
2022-08-30T15:49:54.494Z,101599.69
2022-08-30T15:54:57.762Z,101589.34
2022-08-30T16:00:01.956Z,101581.75
2022-08-30T16:05:11.633Z,101525.63
2022-08-30T16:10:15.119Z,101562.50
2022-08-30T16:15:19.282Z,101553.34
2022-08-30T16:20:23.670Z,101543.22
2022-08-30T16:25:26.545Z,101576.03
2022-08-30T16:30:48.349Z,101567.25
2022-08-30T16:35:58.050Z,101566.94
2022-08-30T16:41:05.031Z,101552.25
2022-08-30T16:46:11.989Z,101554.16
2022-08-30T16:51:16.418Z,101545.53
2022-08-30T16:56:21.258Z,101549.94
2022-08-30T17:01:25.613Z,101537.94
2022-08-30T17:06:28.940Z,101567.69
2022-08-30T17:11:31.745Z,101541.63
2022-08-30T17:16:38.464Z,101584.22
2022-08-30T17:21:45.334Z,101584.75
2022-08-30T17:26:48.257Z,101578.50
2022-08-30T17:31:52.545Z,101582.56
2022-08-30T17:36:58.145Z,101550.75
2022-08-30T17:42:06.364Z,101589.47
2022-08-30T17:47:11.743Z,101579.16
2022-08-30T17:52:14.668Z,101593.97
2022-08-30T17:57:18.117Z,101550.13
2022-08-30T18:02:22.749Z,101613.94
2022-08-30T18:07:32.841Z,101618.91
2022-08-30T18:12:35.699Z,101602.63
2022-08-30T18:17:42.981Z,101577.03
2022-08-30T18:22:46.761Z,101653.25
2022-08-30T18:27:57.181Z,101641.00
2022-08-30T18:33:14.493Z,101641.00
2022-08-30T18:38:18.037Z,101649.81
2022-08-30T18:43:30.654Z,101638.38
2022-08-30T18:48:35.920Z,101539.09
2022-08-30T18:53:39.789Z,101632.56
2022-08-30T18:58:44.613Z,101613.31
2022-08-30T19:03:49.397Z,101651.91
2022-08-30T19:08:52.279Z,101679.03
2022-08-30T19:13:57.354Z,101676.84
2022-08-30T19:19:02.782Z,101608.84
2022-08-30T19:24:06.179Z,101664.59
2022-08-30T19:29:11.114Z,101675.78
2022-08-30T19:34:17.688Z,101679.31
2022-08-30T19:39:20.512Z,101597.03
2022-08-30T19:44:24.987Z,101628.66
2022-08-30T19:49:29.568Z,101669.81
2022-08-30T19:54:37.592Z,101673.31
2022-08-30T19:59:40.436Z,101676.88
2022-08-30T20:04:44.442Z,101675.19
2022-08-30T20:09:47.867Z,101677.22
2022-08-30T20:14:53.597Z,101611.00
2022-08-30T20:20:02.700Z,101611.13
2022-08-30T20:25:10.909Z,101674.41
2022-08-30T20:30:17.178Z,101642.09
2022-08-30T20:35:23.633Z,101630.88
2022-08-30T20:40:26.427Z,101677.38
2022-08-30T20:45:31.067Z,101628.84
2022-08-30T20:50:35.353Z,101683.91
2022-08-30T20:55:42.131Z,101633.00
2022-08-30T21:00:49.838Z,101576.13
2022-08-30T21:05:58.941Z,101614.13
2022-08-30T21:11:02.071Z,101675.53
2022-08-30T21:16:06.182Z,101678.16
2022-08-30T21:21:12.393Z,101680.50
2022-08-30T21:26:15.597Z,101622.22
2022-08-30T21:31:21.060Z,101671.50
2022-08-30T21:36:45.562Z,101693.53
2022-08-30T21:41:49.626Z,101681.59
2022-08-30T21:46:53.565Z,101693.09
2022-08-30T21:51:57.989Z,101640.13
2022-08-30T21:57:04.832Z,101674.25
2022-08-30T22:02:07.572Z,101707.22
2022-08-30T22:07:11.859Z,101635.31
2022-08-30T22:12:14.868Z,101698.53
2022-08-30T22:17:18.819Z,101717.75
2022-08-30T22:22:22.853Z,101687.84
2022-08-30T22:27:25.548Z,101716.28
2022-08-30T22:32:28.592Z,101715.72
2022-08-30T22:37:33.908Z,101720.44
2022-08-30T22:42:36.874Z,101703.38
2022-08-30T22:47:39.530Z,101734.19
2022-08-30T22:52:43.986Z,101725.84
2022-08-30T22:57:46.668Z,101656.59
2022-08-30T23:03:00.015Z,101722.06
2022-08-30T23:08:06.911Z,101720.38
2022-08-30T23:13:09.936Z,101722.03
2022-08-30T23:18:12.716Z,101715.81
2022-08-30T23:23:34.679Z,101722.38
2022-08-30T23:28:54.812Z,101727.88
2022-08-30T23:34:15.971Z,101735.69
2022-08-30T23:39:37.455Z,101709.47
2022-08-30T23:44:58.047Z,101724.84
2022-08-30T23:50:18.416Z,101691.97
2022-08-30T23:55:40.079Z,101697.78
